sensor_id;sensor_type;location;lat;lon;timestamp;P1;durP1;ratioP1;P2;durP2;ratioP2
5688;SDS011;2869;50.432;8.680;2023-07-20T00:01:38;8.50;;;3.80;;
5688;SDS011;2869;50.432;8.680;2023-07-20T00:04:06;7.43;;;3.80;;
5688;SDS011;2869;50.432;8.680;2023-07-20T00:06:32;4.03;;;3.70;;
5688;SDS011;2869;50.432;8.680;2023-07-20T00:08:59;10.83;;;3.67;;
5688;SDS011;2869;50.432;8.680;2023-07-20T00:11:26;5.63;;;3.93;;
5688;SDS011;2869;50.432;8.680;2023-07-20T00:13:54;5.87;;;3.47;;
5688;SDS011;2869;50.432;8.680;2023-07-20T00:16:21;10.10;;;3.73;;
5688;SDS011;2869;50.432;8.680;2023-07-20T00:18:48;4.87;;;3.73;;
5688;SDS011;2869;50.432;8.680;2023-07-20T00:21:14;6.60;;;3.67;;
5688;SDS011;2869;50.432;8.680;2023-07-20T00:23:41;5.90;;;3.73;;
5688;SDS011;2869;50.432;8.680;2023-07-20T00:26:08;7.07;;;3.60;;
5688;SDS011;2869;50.432;8.680;2023-07-20T00:28:34;5.67;;;3.53;;
5688;SDS011;2869;50.432;8.680;2023-07-20T00:31:02;8.50;;;3.50;;
5688;SDS011;2869;50.432;8.680;2023-07-20T00:33:30;4.70;;;3.67;;
5688;SDS011;2869;50.432;8.680;2023-07-20T00:35:56;6.83;;;3.70;;
5688;SDS011;2869;50.432;8.680;2023-07-20T00:38:23;8.27;;;3.97;;
5688;SDS011;2869;50.432;8.680;2023-07-20T00:40:50;5.50;;;4.20;;
5688;SDS011;2869;50.432;8.680;2023-07-20T00:43:17;7.83;;;4.13;;
5688;SDS011;2869;50.432;8.680;2023-07-20T00:45:44;7.70;;;4.50;;
5688;SDS011;2869;50.432;8.680;2023-07-20T00:48:13;7.80;;;4.37;;
5688;SDS011;2869;50.432;8.680;2023-07-20T00:50:41;9.27;;;4.27;;
5688;SDS011;2869;50.432;8.680;2023-07-20T00:53:08;5.40;;;3.40;;
5688;SDS011;2869;50.432;8.680;2023-07-20T00:55:34;5.83;;;4.30;;
5688;SDS011;2869;50.432;8.680;2023-07-20T00:58:01;9.13;;;4.50;;
5688;SDS011;2869;50.432;8.680;2023-07-20T01:00:28;10.97;;;4.43;;
5688;SDS011;2869;50.432;8.680;2023-07-20T01:02:55;11.33;;;4.40;;
5688;SDS011;2869;50.432;8.680;2023-07-20T01:05:24;9.53;;;4.43;;
5688;SDS011;2869;50.432;8.680;2023-07-20T01:07:58;7.63;;;4.20;;
5688;SDS011;2869;50.432;8.680;2023-07-20T01:10:29;7.20;;;4.17;;
5688;SDS011;2869;50.432;8.680;2023-07-20T01:12:59;12.20;;;4.70;;
5688;SDS011;2869;50.432;8.680;2023-07-20T01:15:27;5.87;;;4.57;;
5688;SDS011;2869;50.432;8.680;2023-07-20T01:17:54;7.63;;;4.70;;
5688;SDS011;2869;50.432;8.680;2023-07-20T01:20:20;10.70;;;4.83;;
5688;SDS011;2869;50.432;8.680;2023-07-20T01:23:05;8.33;;;4.70;;
5688;SDS011;2869;50.432;8.680;2023-07-20T01:26:09;16.33;;;5.73;;
5688;SDS011;2869;50.432;8.680;2023-07-20T01:28:57;9.13;;;5.37;;
5688;SDS011;2869;50.432;8.680;2023-07-20T01:31:42;8.07;;;4.67;;
5688;SDS011;2869;50.432;8.680;2023-07-20T01:34:11;13.53;;;4.80;;
5688;SDS011;2869;50.432;8.680;2023-07-20T01:36:40;13.87;;;5.53;;
5688;SDS011;2869;50.432;8.680;2023-07-20T01:39:07;8.63;;;5.30;;
5688;SDS011;2869;50.432;8.680;2023-07-20T01:41:34;8.27;;;5.13;;
5688;SDS011;2869;50.432;8.680;2023-07-20T01:44:03;9.83;;;4.73;;
5688;SDS011;2869;50.432;8.680;2023-07-20T01:46:30;15.13;;;5.07;;
5688;SDS011;2869;50.432;8.680;2023-07-20T01:48:58;10.17;;;5.00;;
5688;SDS011;2869;50.432;8.680;2023-07-20T01:51:24;11.67;;;5.23;;
5688;SDS011;2869;50.432;8.680;2023-07-20T01:53:51;10.03;;;5.40;;
5688;SDS011;2869;50.432;8.680;2023-07-20T01:56:18;9.27;;;5.20;;
5688;SDS011;2869;50.432;8.680;2023-07-20T01:58:44;10.70;;;5.10;;
5688;SDS011;2869;50.432;8.680;2023-07-20T02:01:11;8.13;;;4.90;;
5688;SDS011;2869;50.432;8.680;2023-07-20T02:03:37;10.10;;;5.20;;
5688;SDS011;2869;50.432;8.680;2023-07-20T02:06:05;9.23;;;5.37;;
5688;SDS011;2869;50.432;8.680;2023-07-20T02:08:32;8.77;;;5.60;;
5688;SDS011;2869;50.432;8.680;2023-07-20T02:10:59;9.00;;;5.30;;
5688;SDS011;2869;50.432;8.680;2023-07-20T02:13:25;7.30;;;5.30;;
5688;SDS011;2869;50.432;8.680;2023-07-20T02:15:52;8.90;;;5.63;;
5688;SDS011;2869;50.432;8.680;2023-07-20T02:18:19;12.63;;;4.37;;
5688;SDS011;2869;50.432;8.680;2023-07-20T02:20:45;10.40;;;5.00;;
5688;SDS011;2869;50.432;8.680;2023-07-20T02:23:13;8.20;;;4.77;;
5688;SDS011;2869;50.432;8.680;2023-07-20T02:25:40;8.00;;;4.87;;
5688;SDS011;2869;50.432;8.680;2023-07-20T02:28:07;8.97;;;4.83;;
5688;SDS011;2869;50.432;8.680;2023-07-20T02:30:34;7.07;;;5.13;;
5688;SDS011;2869;50.432;8.680;2023-07-20T02:33:04;7.47;;;4.37;;
5688;SDS011;2869;50.432;8.680;2023-07-20T02:35:31;7.73;;;5.07;;
5688;SDS011;2869;50.432;8.680;2023-07-20T02:37:58;7.73;;;4.67;;
5688;SDS011;2869;50.432;8.680;2023-07-20T02:40:26;7.43;;;4.10;;
5688;SDS011;2869;50.432;8.680;2023-07-20T02:42:52;10.93;;;4.43;;
5688;SDS011;2869;50.432;8.680;2023-07-20T02:45:19;6.33;;;4.90;;
5688;SDS011;2869;50.432;8.680;2023-07-20T02:47:46;7.70;;;4.37;;
5688;SDS011;2869;50.432;8.680;2023-07-20T02:50:12;6.90;;;5.00;;
5688;SDS011;2869;50.432;8.680;2023-07-20T02:52:39;9.50;;;4.63;;
5688;SDS011;2869;50.432;8.680;2023-07-20T02:55:06;6.97;;;5.07;;
5688;SDS011;2869;50.432;8.680;2023-07-20T02:57:35;7.83;;;3.80;;
5688;SDS011;2869;50.432;8.680;2023-07-20T03:00:01;6.47;;;4.33;;
5688;SDS011;2869;50.432;8.680;2023-07-20T03:02:30;12.53;;;3.93;;
5688;SDS011;2869;50.432;8.680;2023-07-20T03:04:57;6.70;;;4.70;;
5688;SDS011;2869;50.432;8.680;2023-07-20T03:07:26;6.27;;;4.10;;
5688;SDS011;2869;50.432;8.680;2023-07-20T03:09:54;6.67;;;4.37;;
5688;SDS011;2869;50.432;8.680;2023-07-20T03:12:21;5.80;;;3.53;;
5688;SDS011;2869;50.432;8.680;2023-07-20T03:14:49;10.53;;;3.43;;
5688;SDS011;2869;50.432;8.680;2023-07-20T03:17:15;6.33;;;4.30;;
5688;SDS011;2869;50.432;8.680;2023-07-20T03:19:42;8.57;;;4.93;;
5688;SDS011;2869;50.432;8.680;2023-07-20T03:22:09;6.83;;;4.77;;
5688;SDS011;2869;50.432;8.680;2023-07-20T03:24:35;6.53;;;4.27;;
5688;SDS011;2869;50.432;8.680;2023-07-20T03:27:02;9.30;;;4.37;;
5688;SDS011;2869;50.432;8.680;2023-07-20T03:29:31;10.03;;;4.67;;
5688;SDS011;2869;50.432;8.680;2023-07-20T03:31:59;9.67;;;4.47;;
5688;SDS011;2869;50.432;8.680;2023-07-20T03:34:26;7.03;;;4.03;;
5688;SDS011;2869;50.432;8.680;2023-07-20T03:36:52;6.13;;;4.30;;
5688;SDS011;2869;50.432;8.680;2023-07-20T03:39:19;7.70;;;4.30;;
5688;SDS011;2869;50.432;8.680;2023-07-20T03:41:46;6.40;;;4.20;;
5688;SDS011;2869;50.432;8.680;2023-07-20T03:44:12;6.10;;;4.63;;
5688;SDS011;2869;50.432;8.680;2023-07-20T03:46:39;7.93;;;4.57;;
5688;SDS011;2869;50.432;8.680;2023-07-20T03:49:07;12.80;;;5.00;;
5688;SDS011;2869;50.432;8.680;2023-07-20T03:51:35;8.70;;;5.47;;
5688;SDS011;2869;50.432;8.680;2023-07-20T03:54:02;10.53;;;5.33;;
5688;SDS011;2869;50.432;8.680;2023-07-20T03:56:28;8.30;;;5.03;;
5688;SDS011;2869;50.432;8.680;2023-07-20T03:58:59;6.67;;;4.30;;
5688;SDS011;2869;50.432;8.680;2023-07-20T04:01:25;9.20;;;5.07;;
5688;SDS011;2869;50.432;8.680;2023-07-20T04:03:52;8.40;;;4.70;;
5688;SDS011;2869;50.432;8.680;2023-07-20T04:06:20;9.37;;;4.50;;
5688;SDS011;2869;50.432;8.680;2023-07-20T04:08:47;5.30;;;4.50;;
5688;SDS011;2869;50.432;8.680;2023-07-20T04:11:14;7.53;;;4.43;;
5688;SDS011;2869;50.432;8.680;2023-07-20T04:13:40;10.47;;;5.03;;
5688;SDS011;2869;50.432;8.680;2023-07-20T04:16:07;7.10;;;4.87;;
5688;SDS011;2869;50.432;8.680;2023-07-20T04:18:33;8.30;;;5.10;;
5688;SDS011;2869;50.432;8.680;2023-07-20T04:21:00;9.47;;;4.63;;
5688;SDS011;2869;50.432;8.680;2023-07-20T04:23:28;5.53;;;3.90;;
5688;SDS011;2869;50.432;8.680;2023-07-20T04:25:55;6.50;;;4.40;;
5688;SDS011;2869;50.432;8.680;2023-07-20T04:28:22;7.77;;;4.70;;
5688;SDS011;2869;50.432;8.680;2023-07-20T04:30:48;6.40;;;4.40;;
5688;SDS011;2869;50.432;8.680;2023-07-20T04:33:16;8.80;;;4.80;;
5688;SDS011;2869;50.432;8.680;2023-07-20T04:35:47;9.70;;;4.43;;
5688;SDS011;2869;50.432;8.680;2023-07-20T04:38:15;9.83;;;4.87;;
5688;SDS011;2869;50.432;8.680;2023-07-20T04:40:45;6.80;;;4.40;;
5688;SDS011;2869;50.432;8.680;2023-07-20T04:43:12;8.03;;;4.07;;
5688;SDS011;2869;50.432;8.680;2023-07-20T04:45:39;8.67;;;4.10;;
5688;SDS011;2869;50.432;8.680;2023-07-20T04:48:07;6.20;;;4.30;;
5688;SDS011;2869;50.432;8.680;2023-07-20T04:50:36;6.37;;;4.27;;
5688;SDS011;2869;50.432;8.680;2023-07-20T04:53:02;6.63;;;4.10;;
5688;SDS011;2869;50.432;8.680;2023-07-20T04:55:29;3.83;;;3.53;;
5688;SDS011;2869;50.432;8.680;2023-07-20T04:58:00;6.57;;;3.70;;
5688;SDS011;2869;50.432;8.680;2023-07-20T05:00:27;5.50;;;3.70;;
5688;SDS011;2869;50.432;8.680;2023-07-20T05:02:53;4.00;;;3.60;;
5688;SDS011;2869;50.432;8.680;2023-07-20T05:05:20;5.27;;;3.43;;
5688;SDS011;2869;50.432;8.680;2023-07-20T05:07:47;4.47;;;3.53;;
5688;SDS011;2869;50.432;8.680;2023-07-20T05:10:14;7.83;;;4.00;;
5688;SDS011;2869;50.432;8.680;2023-07-20T05:12:40;5.50;;;4.37;;
5688;SDS011;2869;50.432;8.680;2023-07-20T05:15:09;4.27;;;3.87;;
5688;SDS011;2869;50.432;8.680;2023-07-20T05:17:36;10.77;;;3.53;;
5688;SDS011;2869;50.432;8.680;2023-07-20T05:20:03;3.83;;;3.43;;
5688;SDS011;2869;50.432;8.680;2023-07-20T05:22:30;5.83;;;3.47;;
5688;SDS011;2869;50.432;8.680;2023-07-20T05:24:57;4.30;;;3.70;;
5688;SDS011;2869;50.432;8.680;2023-07-20T05:27:24;6.83;;;4.17;;
5688;SDS011;2869;50.432;8.680;2023-07-20T05:29:50;7.07;;;4.27;;
5688;SDS011;2869;50.432;8.680;2023-07-20T05:32:19;7.00;;;4.30;;
5688;SDS011;2869;50.432;8.680;2023-07-20T05:34:45;7.33;;;4.83;;
5688;SDS011;2869;50.432;8.680;2023-07-20T05:37:12;5.83;;;4.73;;
5688;SDS011;2869;50.432;8.680;2023-07-20T05:39:39;8.20;;;4.50;;
5688;SDS011;2869;50.432;8.680;2023-07-20T05:42:06;6.00;;;3.90;;
5688;SDS011;2869;50.432;8.680;2023-07-20T05:44:33;5.40;;;4.50;;
5688;SDS011;2869;50.432;8.680;2023-07-20T05:47:00;5.73;;;4.47;;
5688;SDS011;2869;50.432;8.680;2023-07-20T05:49:29;5.47;;;4.17;;
5688;SDS011;2869;50.432;8.680;2023-07-20T05:51:56;7.97;;;4.13;;
5688;SDS011;2869;50.432;8.680;2023-07-20T05:54:23;5.87;;;4.40;;
5688;SDS011;2869;50.432;8.680;2023-07-20T05:56:51;9.23;;;3.67;;
5688;SDS011;2869;50.432;8.680;2023-07-20T05:59:17;4.93;;;3.70;;
5688;SDS011;2869;50.432;8.680;2023-07-20T06:01:44;5.30;;;3.97;;
5688;SDS011;2869;50.432;8.680;2023-07-20T06:04:12;4.43;;;4.03;;
5688;SDS011;2869;50.432;8.680;2023-07-20T06:06:39;4.10;;;3.70;;
5688;SDS011;2869;50.432;8.680;2023-07-20T06:09:06;5.37;;;4.10;;
5688;SDS011;2869;50.432;8.680;2023-07-20T06:11:36;3.77;;;3.47;;
5688;SDS011;2869;50.432;8.680;2023-07-20T06:14:03;5.13;;;3.67;;
5688;SDS011;2869;50.432;8.680;2023-07-20T06:16:30;5.00;;;3.53;;
5688;SDS011;2869;50.432;8.680;2023-07-20T06:18:56;5.03;;;3.73;;
5688;SDS011;2869;50.432;8.680;2023-07-20T06:21:23;4.00;;;3.60;;
5688;SDS011;2869;50.432;8.680;2023-07-20T06:23:51;8.00;;;4.10;;
5688;SDS011;2869;50.432;8.680;2023-07-20T06:26:18;8.07;;;3.60;;
5688;SDS011;2869;50.432;8.680;2023-07-20T06:28:45;5.23;;;3.63;;
5688;SDS011;2869;50.432;8.680;2023-07-20T06:31:11;5.93;;;3.90;;
5688;SDS011;2869;50.432;8.680;2023-07-20T06:33:38;8.10;;;5.73;;
5688;SDS011;2869;50.432;8.680;2023-07-20T06:36:04;13.33;;;6.40;;
5688;SDS011;2869;50.432;8.680;2023-07-20T06:38:31;17.60;;;6.27;;
5688;SDS011;2869;50.432;8.680;2023-07-20T06:40:59;8.70;;;6.33;;
5688;SDS011;2869;50.432;8.680;2023-07-20T06:43:26;9.40;;;6.90;;
5688;SDS011;2869;50.432;8.680;2023-07-20T06:45:52;12.13;;;7.60;;
5688;SDS011;2869;50.432;8.680;2023-07-20T06:48:20;11.60;;;6.47;;
5688;SDS011;2869;50.432;8.680;2023-07-20T06:50:47;11.70;;;6.60;;
5688;SDS011;2869;50.432;8.680;2023-07-20T06:53:14;10.60;;;6.40;;
5688;SDS011;2869;50.432;8.680;2023-07-20T06:55:41;8.33;;;6.13;;
5688;SDS011;2869;50.432;8.680;2023-07-20T06:58:09;6.63;;;4.93;;
5688;SDS011;2869;50.432;8.680;2023-07-20T07:00:36;17.27;;;5.50;;
5688;SDS011;2869;50.432;8.680;2023-07-20T07:03:03;8.10;;;6.00;;
5688;SDS011;2869;50.432;8.680;2023-07-20T07:05:30;9.23;;;7.07;;
5688;SDS011;2869;50.432;8.680;2023-07-20T07:07:56;11.13;;;6.67;;
5688;SDS011;2869;50.432;8.680;2023-07-20T07:10:23;13.57;;;6.60;;
5688;SDS011;2869;50.432;8.680;2023-07-20T07:12:49;8.70;;;5.70;;
5688;SDS011;2869;50.432;8.680;2023-07-20T07:15:17;11.13;;;6.30;;
5688;SDS011;2869;50.432;8.680;2023-07-20T07:17:44;11.93;;;5.90;;
5688;SDS011;2869;50.432;8.680;2023-07-20T07:20:11;6.53;;;5.00;;
5688;SDS011;2869;50.432;8.680;2023-07-20T07:22:38;14.47;;;5.53;;
5688;SDS011;2869;50.432;8.680;2023-07-20T07:25:05;8.23;;;5.20;;
5688;SDS011;2869;50.432;8.680;2023-07-20T07:27:32;9.10;;;4.30;;
5688;SDS011;2869;50.432;8.680;2023-07-20T07:29:59;8.87;;;5.77;;
5688;SDS011;2869;50.432;8.680;2023-07-20T07:32:27;6.80;;;4.70;;
5688;SDS011;2869;50.432;8.680;2023-07-20T07:34:54;7.00;;;5.43;;
5688;SDS011;2869;50.432;8.680;2023-07-20T07:37:21;5.80;;;4.73;;
5688;SDS011;2869;50.432;8.680;2023-07-20T07:39:48;7.20;;;5.00;;
5688;SDS011;2869;50.432;8.680;2023-07-20T07:42:14;5.73;;;5.13;;
5688;SDS011;2869;50.432;8.680;2023-07-20T07:44:41;7.13;;;6.40;;
5688;SDS011;2869;50.432;8.680;2023-07-20T07:47:09;8.13;;;5.20;;
5688;SDS011;2869;50.432;8.680;2023-07-20T07:49:37;7.13;;;5.07;;
5688;SDS011;2869;50.432;8.680;2023-07-20T07:52:04;11.40;;;5.03;;
5688;SDS011;2869;50.432;8.680;2023-07-20T07:54:31;8.27;;;5.07;;
5688;SDS011;2869;50.432;8.680;2023-07-20T07:56:58;7.10;;;4.43;;
5688;SDS011;2869;50.432;8.680;2023-07-20T07:59:24;7.83;;;5.00;;
5688;SDS011;2869;50.432;8.680;2023-07-20T08:01:51;8.63;;;5.00;;
5688;SDS011;2869;50.432;8.680;2023-07-20T08:04:18;12.63;;;4.90;;
5688;SDS011;2869;50.432;8.680;2023-07-20T08:06:46;5.13;;;4.63;;
5688;SDS011;2869;50.432;8.680;2023-07-20T08:09:13;9.37;;;5.13;;
5688;SDS011;2869;50.432;8.680;2023-07-20T08:11:39;7.10;;;4.37;;
5688;SDS011;2869;50.432;8.680;2023-07-20T08:14:06;6.30;;;5.00;;
5688;SDS011;2869;50.432;8.680;2023-07-20T08:16:32;9.77;;;5.07;;
5688;SDS011;2869;50.432;8.680;2023-07-20T08:18:59;6.67;;;5.00;;
5688;SDS011;2869;50.432;8.680;2023-07-20T08:21:27;8.23;;;4.67;;
5688;SDS011;2869;50.432;8.680;2023-07-20T08:23:55;4.93;;;4.50;;
5688;SDS011;2869;50.432;8.680;2023-07-20T08:26:22;4.43;;;4.03;;
5688;SDS011;2869;50.432;8.680;2023-07-20T08:28:49;6.37;;;4.40;;
5688;SDS011;2869;50.432;8.680;2023-07-20T08:31:15;4.80;;;4.10;;
5688;SDS011;2869;50.432;8.680;2023-07-20T08:33:42;6.70;;;4.10;;
5688;SDS011;2869;50.432;8.680;2023-07-20T08:36:09;7.20;;;4.50;;
5688;SDS011;2869;50.432;8.680;2023-07-20T08:38:36;6.70;;;4.97;;
5688;SDS011;2869;50.432;8.680;2023-07-20T08:41:04;10.33;;;4.50;;
5688;SDS011;2869;50.432;8.680;2023-07-20T08:43:30;6.50;;;5.50;;
5688;SDS011;2869;50.432;8.680;2023-07-20T08:45:59;7.57;;;4.57;;
5688;SDS011;2869;50.432;8.680;2023-07-20T08:48:27;4.37;;;3.97;;
5688;SDS011;2869;50.432;8.680;2023-07-20T08:50:55;7.97;;;4.40;;
5688;SDS011;2869;50.432;8.680;2023-07-20T08:53:25;5.63;;;4.40;;
5688;SDS011;2869;50.432;8.680;2023-07-20T08:55:53;9.37;;;4.90;;
5688;SDS011;2869;50.432;8.680;2023-07-20T08:58:21;5.13;;;4.63;;
5688;SDS011;2869;50.432;8.680;2023-07-20T09:00:50;9.00;;;4.80;;
5688;SDS011;2869;50.432;8.680;2023-07-20T09:03:18;8.73;;;4.40;;
5688;SDS011;2869;50.432;8.680;2023-07-20T09:05:45;7.50;;;4.53;;
5688;SDS011;2869;50.432;8.680;2023-07-20T09:08:11;9.00;;;4.60;;
5688;SDS011;2869;50.432;8.680;2023-07-20T09:10:38;8.80;;;4.67;;
5688;SDS011;2869;50.432;8.680;2023-07-20T09:13:05;11.57;;;4.40;;
5688;SDS011;2869;50.432;8.680;2023-07-20T09:15:33;9.57;;;4.10;;
5688;SDS011;2869;50.432;8.680;2023-07-20T09:18:00;6.60;;;3.90;;
5688;SDS011;2869;50.432;8.680;2023-07-20T09:20:28;9.80;;;3.90;;
5688;SDS011;2869;50.432;8.680;2023-07-20T09:22:58;4.10;;;3.60;;
5688;SDS011;2869;50.432;8.680;2023-07-20T09:25:25;5.73;;;3.67;;
5688;SDS011;2869;50.432;8.680;2023-07-20T09:27:53;3.73;;;3.30;;
5688;SDS011;2869;50.432;8.680;2023-07-20T09:30:21;5.67;;;3.70;;
5688;SDS011;2869;50.432;8.680;2023-07-20T09:32:52;5.40;;;4.13;;
5688;SDS011;2869;50.432;8.680;2023-07-20T09:35:19;8.07;;;4.33;;
5688;SDS011;2869;50.432;8.680;2023-07-20T09:37:47;6.73;;;3.57;;
5688;SDS011;2869;50.432;8.680;2023-07-20T09:40:17;5.80;;;3.87;;
5688;SDS011;2869;50.432;8.680;2023-07-20T09:42:44;5.03;;;3.43;;
5688;SDS011;2869;50.432;8.680;2023-07-20T09:45:11;4.07;;;3.20;;
5688;SDS011;2869;50.432;8.680;2023-07-20T09:47:39;5.00;;;3.37;;
5688;SDS011;2869;50.432;8.680;2023-07-20T09:50:08;5.63;;;3.63;;
5688;SDS011;2869;50.432;8.680;2023-07-20T09:52:38;4.80;;;3.10;;
5688;SDS011;2869;50.432;8.680;2023-07-20T09:55:06;5.60;;;3.40;;
5688;SDS011;2869;50.432;8.680;2023-07-20T09:57:34;6.47;;;3.60;;
5688;SDS011;2869;50.432;8.680;2023-07-20T10:00:02;3.50;;;2.90;;
5688;SDS011;2869;50.432;8.680;2023-07-20T10:02:33;4.53;;;3.03;;
5688;SDS011;2869;50.432;8.680;2023-07-20T10:05:05;5.87;;;3.30;;
5688;SDS011;2869;50.432;8.680;2023-07-20T10:07:36;6.90;;;3.60;;
5688;SDS011;2869;50.432;8.680;2023-07-20T10:10:09;5.60;;;3.30;;
5688;SDS011;2869;50.432;8.680;2023-07-20T10:12:36;3.37;;;3.03;;
5688;SDS011;2869;50.432;8.680;2023-07-20T10:15:08;3.93;;;3.10;;
5688;SDS011;2869;50.432;8.680;2023-07-20T10:17:46;2.97;;;2.70;;
5688;SDS011;2869;50.432;8.680;2023-07-20T10:20:19;8.13;;;3.33;;
5688;SDS011;2869;50.432;8.680;2023-07-20T10:22:48;3.47;;;3.17;;
5688;SDS011;2869;50.432;8.680;2023-07-20T10:25:16;4.93;;;2.77;;
5688;SDS011;2869;50.432;8.680;2023-07-20T10:27:46;8.40;;;2.83;;
5688;SDS011;2869;50.432;8.680;2023-07-20T10:30:14;5.93;;;2.93;;
5688;SDS011;2869;50.432;8.680;2023-07-20T10:32:41;6.03;;;3.30;;
5688;SDS011;2869;50.432;8.680;2023-07-20T10:35:12;3.93;;;3.10;;
5688;SDS011;2869;50.432;8.680;2023-07-20T10:37:48;3.97;;;2.93;;
5688;SDS011;2869;50.432;8.680;2023-07-20T10:40:31;3.00;;;2.70;;
5688;SDS011;2869;50.432;8.680;2023-07-20T10:42:59;5.83;;;3.03;;
5688;SDS011;2869;50.432;8.680;2023-07-20T10:45:34;3.70;;;2.90;;
5688;SDS011;2869;50.432;8.680;2023-07-20T10:48:03;3.50;;;3.10;;
5688;SDS011;2869;50.432;8.680;2023-07-20T10:50:30;3.50;;;3.20;;
5688;SDS011;2869;50.432;8.680;2023-07-20T10:53:05;5.20;;;3.23;;
5688;SDS011;2869;50.432;8.680;2023-07-20T10:55:37;4.60;;;2.90;;
5688;SDS011;2869;50.432;8.680;2023-07-20T10:58:06;3.10;;;2.80;;
5688;SDS011;2869;50.432;8.680;2023-07-20T11:00:34;3.30;;;2.70;;
5688;SDS011;2869;50.432;8.680;2023-07-20T11:03:01;3.00;;;2.53;;
5688;SDS011;2869;50.432;8.680;2023-07-20T11:05:34;4.20;;;2.97;;
5688;SDS011;2869;50.432;8.680;2023-07-20T11:08:04;4.50;;;3.50;;
5688;SDS011;2869;50.432;8.680;2023-07-20T11:10:32;3.07;;;2.87;;
5688;SDS011;2869;50.432;8.680;2023-07-20T11:13:18;7.33;;;2.50;;
5688;SDS011;2869;50.432;8.680;2023-07-20T11:15:46;5.27;;;2.43;;
5688;SDS011;2869;50.432;8.680;2023-07-20T11:18:13;3.40;;;3.10;;
5688;SDS011;2869;50.432;8.680;2023-07-20T11:20:40;5.13;;;2.90;;
5688;SDS011;2869;50.432;8.680;2023-07-20T11:23:09;6.70;;;2.97;;
5688;SDS011;2869;50.432;8.680;2023-07-20T11:25:37;7.40;;;3.20;;
5688;SDS011;2869;50.432;8.680;2023-07-20T11:28:06;3.60;;;3.00;;
5688;SDS011;2869;50.432;8.680;2023-07-20T11:30:33;2.87;;;2.67;;
5688;SDS011;2869;50.432;8.680;2023-07-20T11:33:00;5.23;;;2.87;;
5688;SDS011;2869;50.432;8.680;2023-07-20T11:35:27;2.80;;;2.60;;
5688;SDS011;2869;50.432;8.680;2023-07-20T11:37:54;2.63;;;2.43;;
5688;SDS011;2869;50.432;8.680;2023-07-20T11:40:23;3.20;;;2.90;;
5688;SDS011;2869;50.432;8.680;2023-07-20T11:42:50;3.57;;;2.70;;
5688;SDS011;2869;50.432;8.680;2023-07-20T11:45:17;2.90;;;2.70;;
5688;SDS011;2869;50.432;8.680;2023-07-20T11:47:45;6.30;;;3.13;;
5688;SDS011;2869;50.432;8.680;2023-07-20T11:50:11;3.53;;;2.90;;
5688;SDS011;2869;50.432;8.680;2023-07-20T11:52:39;3.10;;;2.60;;
5688;SDS011;2869;50.432;8.680;2023-07-20T11:55:07;2.83;;;2.53;;
5688;SDS011;2869;50.432;8.680;2023-07-20T11:57:35;3.20;;;2.77;;
5688;SDS011;2869;50.432;8.680;2023-07-20T12:00:03;3.03;;;2.70;;
5688;SDS011;2869;50.432;8.680;2023-07-20T12:02:36;9.10;;;2.53;;
5688;SDS011;2869;50.432;8.680;2023-07-20T12:05:04;3.10;;;2.57;;
5688;SDS011;2869;50.432;8.680;2023-07-20T12:07:34;2.80;;;2.60;;
5688;SDS011;2869;50.432;8.680;2023-07-20T12:10:05;2.60;;;2.40;;
5688;SDS011;2869;50.432;8.680;2023-07-20T12:12:32;2.83;;;2.50;;
5688;SDS011;2869;50.432;8.680;2023-07-20T12:15:16;2.80;;;2.17;;
5688;SDS011;2869;50.432;8.680;2023-07-20T12:17:46;3.90;;;2.80;;
5688;SDS011;2869;50.432;8.680;2023-07-20T12:20:24;4.37;;;2.70;;
5688;SDS011;2869;50.432;8.680;2023-07-20T12:22:51;3.67;;;2.70;;
5688;SDS011;2869;50.432;8.680;2023-07-20T12:25:18;4.23;;;3.50;;
5688;SDS011;2869;50.432;8.680;2023-07-20T12:27:45;3.03;;;2.80;;
5688;SDS011;2869;50.432;8.680;2023-07-20T12:30:12;3.00;;;2.70;;
5688;SDS011;2869;50.432;8.680;2023-07-20T12:32:41;2.80;;;2.60;;
5688;SDS011;2869;50.432;8.680;2023-07-20T12:35:08;2.90;;;2.60;;
5688;SDS011;2869;50.432;8.680;2023-07-20T12:37:36;3.50;;;2.93;;
5688;SDS011;2869;50.432;8.680;2023-07-20T12:40:03;3.43;;;3.13;;
5688;SDS011;2869;50.432;8.680;2023-07-20T12:42:35;6.03;;;3.10;;
5688;SDS011;2869;50.432;8.680;2023-07-20T12:45:03;3.03;;;2.50;;
5688;SDS011;2869;50.432;8.680;2023-07-20T12:47:30;4.33;;;2.60;;
5688;SDS011;2869;50.432;8.680;2023-07-20T12:49:59;2.80;;;2.13;;
5688;SDS011;2869;50.432;8.680;2023-07-20T12:52:26;2.30;;;2.10;;
5688;SDS011;2869;50.432;8.680;2023-07-20T12:54:52;5.00;;;2.60;;
5688;SDS011;2869;50.432;8.680;2023-07-20T12:57:19;2.50;;;2.30;;
5688;SDS011;2869;50.432;8.680;2023-07-20T12:59:45;3.83;;;2.70;;
5688;SDS011;2869;50.432;8.680;2023-07-20T13:02:12;4.30;;;2.43;;
5688;SDS011;2869;50.432;8.680;2023-07-20T13:04:39;2.90;;;2.40;;
5688;SDS011;2869;50.432;8.680;2023-07-20T13:07:08;3.80;;;3.10;;
5688;SDS011;2869;50.432;8.680;2023-07-20T13:09:36;6.40;;;2.60;;
5688;SDS011;2869;50.432;8.680;2023-07-20T13:12:03;3.63;;;2.93;;
5688;SDS011;2869;50.432;8.680;2023-07-20T13:14:29;4.40;;;2.50;;
5688;SDS011;2869;50.432;8.680;2023-07-20T13:16:57;5.03;;;2.87;;
5688;SDS011;2869;50.432;8.680;2023-07-20T13:19:24;4.30;;;3.10;;
5688;SDS011;2869;50.432;8.680;2023-07-20T13:21:51;3.17;;;2.87;;
5688;SDS011;2869;50.432;8.680;2023-07-20T13:24:19;3.40;;;2.93;;
5688;SDS011;2869;50.432;8.680;2023-07-20T13:26:45;3.03;;;2.40;;
5688;SDS011;2869;50.432;8.680;2023-07-20T13:29:12;4.33;;;2.60;;
5688;SDS011;2869;50.432;8.680;2023-07-20T13:31:39;6.40;;;2.70;;
5688;SDS011;2869;50.432;8.680;2023-07-20T13:34:05;3.27;;;2.70;;
5688;SDS011;2869;50.432;8.680;2023-07-20T13:36:32;2.57;;;2.37;;
5688;SDS011;2869;50.432;8.680;2023-07-20T13:38:58;5.77;;;2.80;;
5688;SDS011;2869;50.432;8.680;2023-07-20T13:41:26;3.30;;;2.53;;
5688;SDS011;2869;50.432;8.680;2023-07-20T13:43:53;2.87;;;2.30;;
5688;SDS011;2869;50.432;8.680;2023-07-20T13:46:20;4.90;;;2.70;;
5688;SDS011;2869;50.432;8.680;2023-07-20T13:48:46;3.20;;;2.10;;
5688;SDS011;2869;50.432;8.680;2023-07-20T13:51:13;2.67;;;2.30;;
5688;SDS011;2869;50.432;8.680;2023-07-20T13:53:39;4.10;;;2.60;;
5688;SDS011;2869;50.432;8.680;2023-07-20T13:56:06;2.57;;;2.37;;
5688;SDS011;2869;50.432;8.680;2023-07-20T13:58:34;4.40;;;2.83;;
5688;SDS011;2869;50.432;8.680;2023-07-20T14:01:01;3.97;;;3.23;;
5688;SDS011;2869;50.432;8.680;2023-07-20T14:03:28;4.80;;;2.60;;
5688;SDS011;2869;50.432;8.680;2023-07-20T14:05:55;3.53;;;3.17;;
5688;SDS011;2869;50.432;8.680;2023-07-20T14:08:22;2.93;;;2.70;;
5688;SDS011;2869;50.432;8.680;2023-07-20T14:10:48;3.27;;;2.97;;
5688;SDS011;2869;50.432;8.680;2023-07-20T14:13:15;5.07;;;3.00;;
5688;SDS011;2869;50.432;8.680;2023-07-20T14:15:43;2.93;;;2.73;;
5688;SDS011;2869;50.432;8.680;2023-07-20T14:18:10;3.83;;;3.10;;
5688;SDS011;2869;50.432;8.680;2023-07-20T14:20:36;2.53;;;2.33;;
5688;SDS011;2869;50.432;8.680;2023-07-20T14:23:03;2.87;;;2.57;;
5688;SDS011;2869;50.432;8.680;2023-07-20T14:25:30;7.50;;;2.50;;
5688;SDS011;2869;50.432;8.680;2023-07-20T14:27:57;3.67;;;3.00;;
5688;SDS011;2869;50.432;8.680;2023-07-20T14:30:24;4.90;;;2.67;;
5688;SDS011;2869;50.432;8.680;2023-07-20T14:32:52;3.30;;;3.00;;
5688;SDS011;2869;50.432;8.680;2023-07-20T14:35:19;3.50;;;3.20;;
5688;SDS011;2869;50.432;8.680;2023-07-20T14:37:47;3.77;;;3.37;;
5688;SDS011;2869;50.432;8.680;2023-07-20T14:40:15;5.40;;;3.03;;
5688;SDS011;2869;50.432;8.680;2023-07-20T14:42:42;3.37;;;3.17;;
5688;SDS011;2869;50.432;8.680;2023-07-20T14:45:08;4.50;;;3.10;;
5688;SDS011;2869;50.432;8.680;2023-07-20T14:47:35;5.17;;;3.40;;
5688;SDS011;2869;50.432;8.680;2023-07-20T14:50:04;4.20;;;3.27;;
5688;SDS011;2869;50.432;8.680;2023-07-20T14:52:31;3.50;;;3.20;;
5688;SDS011;2869;50.432;8.680;2023-07-20T14:54:58;3.60;;;3.30;;
5688;SDS011;2869;50.432;8.680;2023-07-20T14:57:25;5.57;;;3.73;;
5688;SDS011;2869;50.432;8.680;2023-07-20T14:59:52;3.47;;;3.17;;
5688;SDS011;2869;50.432;8.680;2023-07-20T15:02:18;3.77;;;3.30;;
5688;SDS011;2869;50.432;8.680;2023-07-20T15:04:46;6.47;;;3.60;;
5688;SDS011;2869;50.432;8.680;2023-07-20T15:07:15;3.33;;;2.90;;
5688;SDS011;2869;50.432;8.680;2023-07-20T15:09:42;3.90;;;3.20;;
5688;SDS011;2869;50.432;8.680;2023-07-20T15:12:09;3.37;;;3.07;;
5688;SDS011;2869;50.432;8.680;2023-07-20T15:14:39;5.13;;;3.00;;
5688;SDS011;2869;50.432;8.680;2023-07-20T15:17:07;3.73;;;3.43;;
5688;SDS011;2869;50.432;8.680;2023-07-20T15:19:34;9.13;;;3.03;;